Time;durP1;ratioP1;P1;durP2;ratioP2;P2;SDS_P1;SDS_P2;PMS_P1;PMS_P2;Temp;Humidity;BMP_temperature;BMP_pressure;BME280_temperature;BME280_humidity;BME280_pressure;Samples;Min_cycle;Max_cycle;Signal;HPM_P1;HPM_P2
2024/03/23 00:02:22;;;;;;;;;;;9.00;81.50;;;;;;5086651;28;19980;-60
2024/03/23 00:04:56;;;;;;;;;;;8.90;81.40;;;;;;5086292;28;19972;-61
2024/03/23 00:07:32;;;;;;;;;;;8.90;81.50;;;;;;5093283;28;19986;-60
2024/03/23 00:10:06;;;;;;;;;;;8.90;81.50;;;;;;5092950;28;19928;-60
2024/03/23 00:12:41;;;;;;;;;;;8.90;81.70;;;;;;5093814;28;20465;-61
2024/03/23 00:15:15;;;;;;;;;;;8.90;81.60;;;;;;5088867;28;19927;-60
2024/03/23 00:17:43;;;;;;;;;;;8.90;81.70;;;;;;5090424;28;19962;-62
2024/03/23 00:20:18;;;;;;;;;;;8.80;81.80;;;;;;5095267;28;19955;-62
2024/03/23 00:22:53;;;;;;;;;;;8.80;81.80;;;;;;5093305;28;19934;-61
2024/03/23 00:25:27;;;;;;;;;;;8.80;81.80;;;;;;5085017;28;19941;-61
2024/03/23 00:28:02;;;;;;;;;;;8.80;81.60;;;;;;5083487;28;19931;-62
2024/03/23 00:30:36;;;;;;;;;;;8.70;81.80;;;;;;5078981;28;19928;-61
2024/03/23 00:33:12;;;;;;;;;;;8.70;81.90;;;;;;5059773;28;19932;-60
2024/03/23 00:35:46;;;;;;;;;;;8.60;81.90;;;;;;5093180;28;19934;-62
2024/03/23 00:38:22;;;;;;;;;;;8.60;81.80;;;;;;5093824;28;19928;-62
2024/03/23 00:40:58;;;;;;;;;;;8.60;81.80;;;;;;5091133;28;19927;-61
2024/03/23 00:43:33;;;;;;;;;;;8.60;81.70;;;;;;5088284;28;19931;-61
2024/03/23 00:46:07;;;;;;;;;;;8.60;81.70;;;;;;5081509;28;19989;-61
2024/03/23 00:48:42;;;;;;;;;;;8.60;81.60;;;;;;5089505;28;19934;-61
2024/03/23 00:51:16;;;;;;;;;;;8.50;81.50;;;;;;5092567;28;19935;-60
2024/03/23 00:53:51;;;;;;;;;;;8.50;81.50;;;;;;5093028;28;19928;-62
2024/03/23 00:56:25;;;;;;;;;;;8.50;81.50;;;;;;5094521;28;19928;-62
2024/03/23 00:58:58;;;;;;;;;;;8.40;81.60;;;;;;5096108;28;19930;-61
2024/03/23 01:01:31;;;;;;;;;;;8.40;81.70;;;;;;5083039;28;20011;-62
2024/03/23 01:04:03;;;;;;;;;;;8.40;81.70;;;;;;5088793;28;19977;-61
2024/03/23 01:06:36;;;;;;;;;;;8.30;81.70;;;;;;5096423;28;19935;-61
2024/03/23 01:09:10;;;;;;;;;;;8.40;81.80;;;;;;5093432;28;19924;-61
2024/03/23 01:11:45;;;;;;;;;;;8.40;81.70;;;;;;5087680;28;20007;-61
2024/03/23 01:14:18;;;;;;;;;;;8.30;81.90;;;;;;5090099;28;19975;-65
2024/03/23 01:16:51;;;;;;;;;;;8.20;81.80;;;;;;5091601;28;19924;-66
2024/03/23 01:19:24;;;;;;;;;;;8.30;82.00;;;;;;5091619;28;19951;-65
2024/03/23 01:21:58;;;;;;;;;;;8.30;82.30;;;;;;5095308;28;19985;-65
2024/03/23 01:24:30;;;;;;;;;;;8.30;82.50;;;;;;5088194;28;19935;-65
2024/03/23 01:27:05;;;;;;;;;;;8.30;82.80;;;;;;5087440;28;19932;-64
2024/03/23 01:29:37;;;;;;;;;;;8.30;83.00;;;;;;5089534;28;19937;-66
2024/03/23 01:32:10;;;;;;;;;;;8.30;83.10;;;;;;5094973;28;19935;-65
2024/03/23 01:34:42;;;;;;;;;;;8.30;83.30;;;;;;5093471;28;19928;-65
2024/03/23 01:37:15;;;;;;;;;;;8.30;83.60;;;;;;5092352;28;19932;-64
2024/03/23 01:39:47;;;;;;;;;;;8.40;83.50;;;;;;5089224;28;19925;-66
2024/03/23 01:42:21;;;;;;;;;;;8.40;83.60;;;;;;5088805;28;19930;-64
2024/03/23 01:44:54;;;;;;;;;;;8.40;83.60;;;;;;5085009;28;19971;-65
2024/03/23 01:47:27;;;;;;;;;;;8.40;83.80;;;;;;5080667;28;20589;-66
2024/03/23 01:49:53;;;;;;;;;;;8.40;83.90;;;;;;5092019;28;19928;-65
2024/03/23 01:52:27;;;;;;;;;;;8.40;83.80;;;;;;5082580;28;19935;-66
2024/03/23 01:54:59;;;;;;;;;;;8.40;83.90;;;;;;5087912;28;19998;-64
2024/03/23 01:57:33;;;;;;;;;;;8.40;84.10;;;;;;5085866;28;20089;-64
2024/03/23 02:00:07;;;;;;;;;;;8.40;84.30;;;;;;5092998;28;19956;-66
2024/03/23 02:02:44;;;;;;;;;;;8.40;84.40;;;;;;5084981;28;19924;-65
2024/03/23 02:05:17;;;;;;;;;;;8.40;84.30;;;;;;5088791;28;20215;-65
2024/03/23 02:07:51;;;;;;;;;;;8.40;84.40;;;;;;5089495;28;19959;-65
2024/03/23 02:10:23;;;;;;;;;;;8.50;84.20;;;;;;5094142;28;20031;-65
2024/03/23 02:12:57;;;;;;;;;;;8.40;84.10;;;;;;5082475;28;20060;-66
2024/03/23 02:15:30;;;;;;;;;;;8.40;84.30;;;;;;5075256;28;20019;-65
2024/03/23 02:18:04;;;;;;;;;;;8.50;84.40;;;;;;5085310;28;19981;-66
2024/03/23 02:20:36;;;;;;;;;;;8.50;84.40;;;;;;5091350;28;19954;-65
2024/03/23 02:30:28;;;;;;;;;;;8.50;84.60;;;;;;5071124;28;19945;-60
2024/03/23 02:33:00;;;;;;;;;;;8.50;84.50;;;;;;5087765;28;20367;-60
2024/03/23 02:35:33;;;;;;;;;;;8.40;84.70;;;;;;5082634;28;20008;-59
2024/03/23 02:38:06;;;;;;;;;;;8.40;84.70;;;;;;5081639;28;19935;-60
2024/03/23 02:40:39;;;;;;;;;;;8.50;84.60;;;;;;5089623;28;19932;-60
2024/03/23 02:43:11;;;;;;;;;;;8.40;84.90;;;;;;5096422;28;20015;-60
2024/03/23 02:45:45;;;;;;;;;;;8.50;84.90;;;;;;5097155;28;20487;-60
2024/03/23 02:48:18;;;;;;;;;;;8.50;84.90;;;;;;5095276;28;19928;-59
2024/03/23 02:50:51;;;;;;;;;;;8.50;84.90;;;;;;5096111;28;19935;-60
2024/03/23 02:53:23;;;;;;;;;;;8.50;84.90;;;;;;5095807;28;19935;-60
2024/03/23 02:55:58;;;;;;;;;;;8.50;85.20;;;;;;5095008;28;19931;-59
2024/03/23 02:58:30;;;;;;;;;;;8.50;85.10;;;;;;5081292;28;19930;-60
2024/03/23 03:01:04;;;;;;;;;;;8.50;85.20;;;;;;5087490;28;19932;-60
2024/03/23 03:03:37;;;;;;;;;;;8.50;84.90;;;;;;5095382;28;19932;-60
2024/03/23 03:06:10;;;;;;;;;;;8.50;84.90;;;;;;5094570;28;19938;-60
2024/03/23 03:08:42;;;;;;;;;;;8.50;84.80;;;;;;5094644;28;20432;-60
2024/03/23 03:11:21;;;;;;;;;;;8.50;84.80;;;;;;5096376;28;19932;-60
2024/03/23 03:14:01;;;;;;;;;;;8.50;84.90;;;;;;5095326;28;19932;-58
2024/03/23 03:16:35;;;;;;;;;;;8.50;84.90;;;;;;5096062;28;19924;-59
2024/03/23 03:19:09;;;;;;;;;;;8.50;84.90;;;;;;5096478;28;19936;-60
2024/03/23 03:21:42;;;;;;;;;;;8.50;84.90;;;;;;5095735;28;19928;-60
2024/03/23 03:24:08;;;;;;;;;;;8.50;84.80;;;;;;5096080;28;19950;-61
2024/03/23 03:26:41;;;;;;;;;;;8.40;84.90;;;;;;5095411;28;19947;-61
2024/03/23 03:29:13;;;;;;;;;;;8.50;85.00;;;;;;5082087;28;19938;-60
2024/03/23 03:31:49;;;;;;;;;;;8.40;85.00;;;;;;5090236;28;19931;-61
2024/03/23 03:34:22;;;;;;;;;;;8.40;85.00;;;;;;5094968;28;20281;-64
2024/03/23 03:36:55;;;;;;;;;;;8.40;84.90;;;;;;5096650;28;19932;-64
2024/03/23 03:39:27;;;;;;;;;;;8.40;84.90;;;;;;5087583;28;19930;-63
2024/03/23 03:42:01;;;;;;;;;;;8.40;84.80;;;;;;5092779;28;19928;-65
2024/03/23 03:44:33;;;;;;;;;;;8.40;84.90;;;;;;5096341;28;19932;-65
2024/03/23 03:47:01;;;;;;;;;;;8.40;84.90;;;;;;5095922;28;19928;-64
2024/03/23 03:49:33;;;;;;;;;;;8.40;85.10;;;;;;5096240;28;20014;-64
2024/03/23 03:52:01;;;;;;;;;;;8.50;85.10;;;;;;5095965;28;20023;-65
2024/03/23 03:54:33;;;;;;;;;;;8.50;85.00;;;;;;5094460;28;19962;-63
2024/03/23 03:57:06;;;;;;;;;;;8.50;85.10;;;;;;5095972;28;19935;-66
2024/03/23 03:59:38;;;;;;;;;;;8.50;85.20;;;;;;5096409;28;20569;-63
2024/03/23 04:02:12;;;;;;;;;;;8.50;85.30;;;;;;5097678;28;20397;-64
2024/03/23 04:04:45;;;;;;;;;;;8.40;85.40;;;;;;5096301;28;19928;-64
2024/03/23 04:07:20;;;;;;;;;;;8.40;85.40;;;;;;5090674;28;20338;-63
2024/03/23 04:09:52;;;;;;;;;;;8.40;85.50;;;;;;5094295;28;19932;-63
2024/03/23 04:12:25;;;;;;;;;;;8.30;85.60;;;;;;5095968;28;20386;-63
2024/03/23 04:14:57;;;;;;;;;;;8.40;85.50;;;;;;5092915;28;19976;-63
2024/03/23 04:17:33;;;;;;;;;;;8.40;85.50;;;;;;5094165;28;19938;-64
2024/03/23 04:20:10;;;;;;;;;;;8.40;85.50;;;;;;5095127;28;19932;-64
2024/03/23 04:22:44;;;;;;;;;;;8.40;85.60;;;;;;5096288;28;19930;-63
2024/03/23 04:25:16;;;;;;;;;;;8.40;85.60;;;;;;5084102;28;20262;-64
2024/03/23 04:27:49;;;;;;;;;;;8.30;85.70;;;;;;5092391;28;19930;-65
2024/03/23 04:30:23;;;;;;;;;;;8.30;85.70;;;;;;5095930;28;19930;-65
2024/03/23 04:32:58;;;;;;;;;;;8.30;85.80;;;;;;5090555;28;20005;-64
2024/03/23 04:35:30;;;;;;;;;;;8.30;85.90;;;;;;5092202;28;19946;-63
2024/03/23 04:38:03;;;;;;;;;;;8.30;85.90;;;;;;5093265;28;19932;-65
2024/03/23 04:40:38;;;;;;;;;;;8.20;86.00;;;;;;5094058;28;19939;-63
2024/03/23 04:43:11;;;;;;;;;;;8.30;85.90;;;;;;5097955;28;20509;-64
2024/03/23 04:45:43;;;;;;;;;;;8.30;86.00;;;;;;5094386;28;19928;-64
2024/03/23 04:48:18;;;;;;;;;;;8.30;86.00;;;;;;5092625;28;19924;-65
2024/03/23 04:50:55;;;;;;;;;;;8.40;86.10;;;;;;5091067;28;19924;-65
2024/03/23 04:53:29;;;;;;;;;;;8.40;86.00;;;;;;5094666;28;19924;-64
2024/03/23 04:56:04;;;;;;;;;;;8.40;86.00;;;;;;5090717;28;20831;-64
2024/03/23 04:58:29;;;;;;;;;;;8.40;86.10;;;;;;5088348;28;20302;-64
2024/03/23 05:01:03;;;;;;;;;;;8.40;86.00;;;;;;5076561;28;20858;-63
2024/03/23 05:03:38;;;;;;;;;;;8.40;86.20;;;;;;5095435;28;20271;-65
2024/03/23 05:06:12;;;;;;;;;;;8.40;86.10;;;;;;5094428;28;19932;-64
2024/03/23 05:08:44;;;;;;;;;;;8.40;86.10;;;;;;5095444;28;20630;-66
2024/03/23 05:11:17;;;;;;;;;;;8.40;86.40;;;;;;5093374;28;19939;-63
2024/03/23 05:13:49;;;;;;;;;;;8.40;86.40;;;;;;5094926;28;20016;-63
2024/03/23 05:16:22;;;;;;;;;;;8.40;86.30;;;;;;5093757;28;19928;-63
2024/03/23 05:18:55;;;;;;;;;;;8.40;86.50;;;;;;5092665;28;19997;-64
2024/03/23 05:21:29;;;;;;;;;;;8.40;86.80;;;;;;5091231;28;19924;-64
2024/03/23 05:24:02;;;;;;;;;;;8.40;87.00;;;;;;5096397;28;19924;-65
2024/03/23 05:26:35;;;;;;;;;;;8.40;87.30;;;;;;5096125;28;19931;-65
2024/03/23 05:29:13;;;;;;;;;;;8.50;87.10;;;;;;5095589;28;20014;-63
2024/03/23 05:31:49;;;;;;;;;;;8.50;87.10;;;;;;5096058;28;19928;-65
2024/03/23 05:34:23;;;;;;;;;;;8.50;87.20;;;;;;5095658;28;19935;-65
2024/03/23 05:36:56;;;;;;;;;;;8.50;87.10;;;;;;5092825;28;20380;-63
2024/03/23 05:39:23;;;;;;;;;;;8.60;86.90;;;;;;5095061;28;19981;-64
2024/03/23 05:41:55;;;;;;;;;;;8.60;86.50;;;;;;5092475;28;19939;-64
2024/03/23 05:44:28;;;;;;;;;;;8.60;86.40;;;;;;5085684;28;19928;-65
2024/03/23 05:47:00;;;;;;;;;;;8.70;86.50;;;;;;5093360;28;19935;-63
2024/03/23 05:49:34;;;;;;;;;;;8.70;86.80;;;;;;5090516;28;20378;-63
2024/03/23 05:52:07;;;;;;;;;;;8.70;86.30;;;;;;5096090;28;19980;-61
2024/03/23 05:54:40;;;;;;;;;;;8.70;86.30;;;;;;5097326;28;20455;-62
2024/03/23 05:57:13;;;;;;;;;;;8.70;86.60;;;;;;5094967;28;19981;-61
2024/03/23 05:59:46;;;;;;;;;;;8.80;87.20;;;;;;5100173;28;19928;-61
2024/03/23 06:02:18;;;;;;;;;;;8.80;86.80;;;;;;5100328;28;19934;-61
2024/03/23 06:04:53;;;;;;;;;;;8.80;86.40;;;;;;5096671;28;20026;-62
2024/03/23 06:07:25;;;;;;;;;;;8.80;86.90;;;;;;5099094;28;19998;-63
2024/03/23 06:09:58;;;;;;;;;;;8.80;86.80;;;;;;5098032;28;20335;-61
2024/03/23 06:12:30;;;;;;;;;;;8.70;87.00;;;;;;5092758;28;20424;-60
2024/03/23 06:15:03;;;;;;;;;;;8.70;86.70;;;;;;5092919;28;19943;-61
2024/03/23 06:17:35;;;;;;;;;;;8.70;86.50;;;;;;5097383;28;20000;-61
2024/03/23 06:20:10;;;;;;;;;;;8.70;86.20;;;;;;5100966;28;19924;-60
2024/03/23 06:22:43;;;;;;;;;;;8.70;86.20;;;;;;5099241;28;19963;-62
2024/03/23 06:25:16;;;;;;;;;;;8.70;85.90;;;;;;5099497;28;19968;-62
2024/03/23 06:27:48;;;;;;;;;;;8.70;85.30;;;;;;5101423;28;19942;-61
2024/03/23 06:30:21;;;;;;;;;;;8.70;85.20;;;;;;5099845;28;19924;-60
2024/03/23 06:32:53;;;;;;;;;;;8.60;85.00;;;;;;5093668;28;19924;-62
2024/03/23 06:35:27;;;;;;;;;;;8.60;84.80;;;;;;5098590;28;19973;-61
2024/03/23 06:38:00;;;;;;;;;;;8.60;84.80;;;;;;5097135;28;20374;-62
2024/03/23 06:40:33;;;;;;;;;;;8.70;84.50;;;;;;5096305;28;19927;-60
2024/03/23 06:43:05;;;;;;;;;;;8.60;84.20;;;;;;5098047;28;20433;-62
2024/03/23 06:45:38;;;;;;;;;;;8.60;84.20;;;;;;5093969;28;19924;-61
2024/03/23 06:48:10;;;;;;;;;;;8.60;83.70;;;;;;5098076;28;20030;-61
2024/03/23 06:50:44;;;;;;;;;;;8.50;83.30;;;;;;5097374;28;20295;-61
2024/03/23 06:53:17;;;;;;;;;;;8.50;83.10;;;;;;5081122;28;19923;-60
2024/03/23 06:55:51;;;;;;;;;;;8.50;83.00;;;;;;5096883;28;20387;-61
2024/03/23 06:58:24;;;;;;;;;;;8.50;82.70;;;;;;5097947;28;19939;-61
2024/03/23 07:00:51;;;;;;;;;;;8.50;82.80;;;;;;5094972;28;20036;-61
2024/03/23 07:03:25;;;;;;;;;;;8.50;82.80;;;;;;5084702;28;19924;-65
2024/03/23 07:06:01;;;;;;;;;;;8.50;82.60;;;;;;5087903;28;20624;-66
2024/03/23 07:08:26;;;;;;;;;;;8.50;82.60;;;;;;5086080;28;20895;-66
2024/03/23 07:10:59;;;;;;;;;;;8.50;82.50;;;;;;5087516;28;19934;-65
2024/03/23 07:13:31;;;;;;;;;;;8.50;82.70;;;;;;5081143;28;19981;-66
2024/03/23 07:16:04;;;;;;;;;;;8.60;82.60;;;;;;5087646;28;19927;-67
2024/03/23 07:18:36;;;;;;;;;;;8.60;82.30;;;;;;5084828;28;19974;-66
2024/03/23 07:21:11;;;;;;;;;;;8.60;82.40;;;;;;5056584;28;19932;-67
2024/03/23 07:23:44;;;;;;;;;;;8.50;82.60;;;;;;5094290;28;19942;-64
2024/03/23 07:26:18;;;;;;;;;;;8.50;82.80;;;;;;5090397;28;19967;-66
2024/03/23 07:28:52;;;;;;;;;;;8.50;82.60;;;;;;5078146;28;19946;-65
2024/03/23 07:31:25;;;;;;;;;;;8.60;82.50;;;;;;5081547;28;19933;-65
2024/03/23 07:33:59;;;;;;;;;;;8.50;82.60;;;;;;5086526;28;19924;-67
2024/03/23 07:36:34;;;;;;;;;;;8.50;82.90;;;;;;5086201;28;19928;-66
2024/03/23 07:39:07;;;;;;;;;;;8.60;82.80;;;;;;5078949;28;20068;-66
2024/03/23 07:41:40;;;;;;;;;;;8.60;82.80;;;;;;5084245;28;19924;-65
2024/03/23 07:44:12;;;;;;;;;;;8.50;82.70;;;;;;5096099;28;20386;-66
2024/03/23 07:46:45;;;;;;;;;;;8.50;82.80;;;;;;5081151;28;19932;-65
2024/03/23 07:49:18;;;;;;;;;;;8.50;82.90;;;;;;5091409;28;19931;-67
2024/03/23 07:51:53;;;;;;;;;;;8.50;83.00;;;;;;5093195;28;20015;-65
2024/03/23 07:54:25;;;;;;;;;;;8.50;83.00;;;;;;5092613;28;20057;-67
2024/03/23 07:56:58;;;;;;;;;;;8.50;83.00;;;;;;5087200;28;20616;-68
2024/03/23 07:59:31;;;;;;;;;;;8.40;82.80;;;;;;5086431;28;19931;-66
2024/03/23 08:02:11;;;;;;;;;;;8.40;82.70;;;;;;5091789;28;19939;-66
2024/03/23 08:04:43;;;;;;;;;;;8.40;82.60;;;;;;5096573;28;20015;-67
2024/03/23 08:07:18;;;;;;;;;;;8.50;82.30;;;;;;5096781;28;19986;-64
2024/03/23 08:09:50;;;;;;;;;;;8.50;82.10;;;;;;5097729;28;19924;-66
2024/03/23 08:12:23;;;;;;;;;;;8.60;81.60;;;;;;5096068;28;20015;-62
2024/03/23 08:14:55;;;;;;;;;;;8.60;81.10;;;;;;5084803;28;19932;-61
2024/03/23 08:17:29;;;;;;;;;;;8.70;81.00;;;;;;5095170;28;19935;-61
2024/03/23 08:20:01;;;;;;;;;;;8.70;80.40;;;;;;5095439;28;19967;-62
2024/03/23 08:22:36;;;;;;;;;;;8.80;80.20;;;;;;5084112;28;20393;-61
2024/03/23 08:25:08;;;;;;;;;;;8.80;80.20;;;;;;5091819;28;20012;-61
2024/03/23 08:27:41;;;;;;;;;;;8.90;79.60;;;;;;5090780;28;19935;-62
2024/03/23 08:30:13;;;;;;;;;;;8.90;79.60;;;;;;5096259;28;19928;-62
2024/03/23 08:32:47;;;;;;;;;;;8.90;79.70;;;;;;5094067;28;19928;-62
2024/03/23 08:35:20;;;;;;;;;;;8.90;79.70;;;;;;5094833;28;19923;-61
2024/03/23 08:37:55;;;;;;;;;;;8.90;79.80;;;;;;5084046;28;20372;-61
2024/03/23 08:40:27;;;;;;;;;;;8.80;79.70;;;;;;5088384;28;20401;-61
2024/03/23 08:43:00;;;;;;;;;;;8.80;79.90;;;;;;5088305;28;20428;-61
2024/03/23 08:45:32;;;;;;;;;;;8.70;79.80;;;;;;5090838;28;19955;-61
2024/03/23 08:48:05;;;;;;;;;;;8.70;79.80;;;;;;5088819;28;19925;-62
2024/03/23 08:50:38;;;;;;;;;;;8.70;80.10;;;;;;5086351;28;19959;-60
2024/03/23 08:53:06;;;;;;;;;;;8.80;80.10;;;;;;5086778;28;20415;-61
2024/03/23 08:55:39;;;;;;;;;;;8.80;79.70;;;;;;5085303;28;19928;-62
2024/03/23 08:58:13;;;;;;;;;;;8.90;79.60;;;;;;5092434;28;19928;-62
2024/03/23 09:00:45;;;;;;;;;;;9.00;79.30;;;;;;5084034;28;19930;-60
2024/03/23 09:03:18;;;;;;;;;;;8.90;78.90;;;;;;5082369;28;20400;-60
2024/03/23 09:05:50;;;;;;;;;;;8.90;78.60;;;;;;5086600;28;19935;-61
2024/03/23 09:08:25;;;;;;;;;;;8.90;78.70;;;;;;5091327;28;19932;-62
2024/03/23 09:10:57;;;;;;;;;;;8.80;78.60;;;;;;5081937;28;19978;-62
2024/03/23 09:13:30;;;;;;;;;;;8.80;78.40;;;;;;5084869;28;19931;-62
2024/03/23 09:16:09;;;;;;;;;;;8.70;78.50;;;;;;5088899;28;19932;-61
2024/03/23 09:18:42;;;;;;;;;;;8.80;78.20;;;;;;5088605;28;20019;-62
2024/03/23 09:21:14;;;;;;;;;;;8.90;78.10;;;;;;5087817;28;19928;-61
2024/03/23 09:23:49;;;;;;;;;;;8.80;77.70;;;;;;5086585;28;19924;-61
2024/03/23 09:26:21;;;;;;;;;;;8.80;77.90;;;;;;5094750;28;19924;-61
2024/03/23 09:28:54;;;;;;;;;;;8.90;77.80;;;;;;5094891;28;20017;-62
2024/03/23 09:31:27;;;;;;;;;;;8.90;77.60;;;;;;5092795;28;20000;-62
2024/03/23 09:34:00;;;;;;;;;;;9.00;77.60;;;;;;5095513;28;19932;-60
2024/03/23 09:36:32;;;;;;;;;;;9.10;77.60;;;;;;5090901;28;19928;-60
2024/03/23 09:39:09;;;;;;;;;;;9.20;77.00;;;;;;5094271;28;19935;-60
2024/03/23 09:41:42;;;;;;;;;;;9.20;77.00;;;;;;5095032;28;20046;-61
2024/03/23 09:44:16;;;;;;;;;;;9.20;77.10;;;;;;5098674;28;20382;-63
2024/03/23 09:46:49;;;;;;;;;;;9.30;77.10;;;;;;5077013;28;19928;-62
2024/03/23 09:49:21;;;;;;;;;;;9.30;77.30;;;;;;5089008;28;19924;-60
2024/03/23 09:51:55;;;;;;;;;;;9.40;77.00;;;;;;5096800;28;19931;-61
2024/03/23 09:54:29;;;;;;;;;;;9.40;77.10;;;;;;5098112;28;19969;-60
2024/03/23 09:57:02;;;;;;;;;;;9.40;77.30;;;;;;5091704;28;19924;-61
2024/03/23 09:59:35;;;;;;;;;;;9.30;77.10;;;;;;5094628;28;20468;-60
2024/03/23 10:02:10;;;;;;;;;;;9.30;77.00;;;;;;5088935;28;20387;-62
2024/03/23 10:04:36;;;;;;;;;;;9.40;77.10;;;;;;5090968;28;19932;-60
2024/03/23 10:07:13;;;;;;;;;;;9.90;76.40;;;;;;5093046;28;19948;-60
2024/03/23 10:09:47;;;;;;;;;;;10.20;75.70;;;;;;5095643;28;20615;-60
2024/03/23 10:12:21;;;;;;;;;;;10.60;74.50;;;;;;5091399;28;20024;-61
2024/03/23 10:14:53;;;;;;;;;;;10.80;74.00;;;;;;5097139;28;19955;-59
2024/03/23 10:17:26;;;;;;;;;;;10.70;73.80;;;;;;5094836;28;19930;-61
2024/03/23 10:19:58;;;;;;;;;;;10.60;72.60;;;;;;5093517;28;19985;-62
2024/03/23 10:22:37;;;;;;;;;;;10.70;71.00;;;;;;5094692;28;19928;-62
2024/03/23 10:25:13;;;;;;;;;;;10.90;70.70;;;;;;5096070;28;20019;-61
2024/03/23 10:27:59;;;;;;;;;;;11.30;69.20;;;;;;5092660;28;21767;-60
2024/03/23 10:30:31;;;;;;;;;;;11.70;68.40;;;;;;5093089;28;19935;-60
2024/03/23 10:33:08;;;;;;;;;;;11.90;67.90;;;;;;5096532;28;20033;-62
2024/03/23 10:35:40;;;;;;;;;;;12.10;66.80;;;;;;5089174;28;19947;-62
2024/03/23 10:38:13;;;;;;;;;;;11.90;65.90;;;;;;5091655;28;19947;-62
2024/03/23 10:40:47;;;;;;;;;;;11.70;65.70;;;;;;5088579;28;19981;-62
2024/03/23 10:43:14;;;;;;;;;;;11.50;65.50;;;;;;5091621;28;20316;-62
2024/03/23 10:45:46;;;;;;;;;;;11.40;65.30;;;;;;5086539;28;20501;-61
2024/03/23 10:48:19;;;;;;;;;;;11.60;65.10;;;;;;5092883;28;20333;-63
2024/03/23 10:50:52;;;;;;;;;;;11.90;64.70;;;;;;5093273;28;20010;-61
2024/03/23 10:53:26;;;;;;;;;;;12.10;64.80;;;;;;5095176;28;19927;-62
2024/03/23 10:59:33;;;;;;;;;;;12.50;63.60;;;;;;5047832;28;19939;-61
2024/03/23 11:02:08;;;;;;;;;;;12.50;62.50;;;;;;5059240;28;20035;-61
2024/03/23 11:04:42;;;;;;;;;;;12.30;61.00;;;;;;5089877;28;20276;-63
2024/03/23 11:07:31;;;;;;;;;;;12.00;60.50;;;;;;5092238;28;19939;-62
2024/03/23 11:10:25;;;;;;;;;;;11.80;59.70;;;;;;5094298;28;19969;-62
2024/03/23 11:12:56;;;;;;;;;;;11.60;59.60;;;;;;5090983;28;19943;-61
2024/03/23 11:15:31;;;;;;;;;;;11.40;60.50;;;;;;5089624;28;19924;-62
2024/03/23 11:18:04;;;;;;;;;;;11.30;60.60;;;;;;5095286;28;19982;-60
2024/03/23 11:20:37;;;;;;;;;;;11.10;60.80;;;;;;5086407;28;20000;-61
2024/03/23 11:23:26;;;;;;;;;;;10.90;61.60;;;;;;5093588;28;19927;-62
2024/03/23 11:26:00;;;;;;;;;;;10.70;62.20;;;;;;5088883;28;19994;-61
2024/03/23 11:28:26;;;;;;;;;;;10.50;63.20;;;;;;5091196;28;19955;-61
2024/03/23 11:31:01;;;;;;;;;;;10.30;64.80;;;;;;5092233;28;19932;-61
2024/03/23 11:33:33;;;;;;;;;;;10.10;67.10;;;;;;5091809;28;19980;-61
2024/03/23 11:36:09;;;;;;;;;;;9.90;68.60;;;;;;5089622;28;19924;-61
2024/03/23 11:38:41;;;;;;;;;;;10.00;69.60;;;;;;5087310;28;19943;-62
2024/03/23 11:41:14;;;;;;;;;;;10.00;69.90;;;;;;5091319;28;19932;-61
2024/03/23 11:43:46;;;;;;;;;;;9.90;70.30;;;;;;5089148;28;19932;-61
2024/03/23 11:46:24;;;;;;;;;;;9.90;70.40;;;;;;5089464;28;19924;-60
2024/03/23 11:48:56;;;;;;;;;;;9.90;70.80;;;;;;5088686;28;19924;-60
2024/03/23 11:51:34;;;;;;;;;;;9.90;71.40;;;;;;5090896;28;19932;-61
2024/03/23 11:54:07;;;;;;;;;;;9.80;71.80;;;;;;5090617;28;19923;-60
2024/03/23 11:56:40;;;;;;;;;;;9.70;72.80;;;;;;5085698;28;19928;-62
2024/03/23 11:59:29;;;;;;;;;;;9.60;73.20;;;;;;5088003;28;20456;-61
2024/03/23 12:02:09;;;;;;;;;;;9.60;72.30;;;;;;5084775;28;19936;-62
2024/03/23 12:04:41;;;;;;;;;;;9.70;71.70;;;;;;5090922;28;20341;-60
2024/03/23 12:07:15;;;;;;;;;;;9.70;71.60;;;;;;5090925;28;19932;-61
2024/03/23 12:10:01;;;;;;;;;;;10.00;72.10;;;;;;5085151;28;20021;-61
2024/03/23 12:12:34;;;;;;;;;;;10.30;72.60;;;;;;5074480;28;19938;-60
2024/03/23 12:15:08;;;;;;;;;;;10.30;71.90;;;;;;5086257;28;19928;-60
2024/03/23 12:17:42;;;;;;;;;;;10.40;72.00;;;;;;5088553;28;19939;-62
2024/03/23 12:20:14;;;;;;;;;;;10.40;72.00;;;;;;5094261;28;19930;-62
2024/03/23 12:23:20;;;;;;;;;;;10.50;72.20;;;;;;5090644;28;20379;-61
2024/03/23 12:26:18;;;;;;;;;;;10.50;71.70;;;;;;5095206;28;20001;-60
2024/03/23 12:28:51;;;;;;;;;;;10.50;72.20;;;;;;5097895;28;19924;-60
2024/03/23 12:31:24;;;;;;;;;;;10.50;72.30;;;;;;5096975;28;19923;-60
2024/03/23 12:33:59;;;;;;;;;;;10.60;71.90;;;;;;5084348;28;19928;-61
2024/03/23 12:36:46;;;;;;;;;;;10.60;72.00;;;;;;5085537;28;22365;-62
2024/03/23 12:39:26;;;;;;;;;;;10.60;71.70;;;;;;5094292;28;20003;-60
2024/03/23 12:41:58;;;;;;;;;;;10.60;71.50;;;;;;5088598;28;20294;-60
2024/03/23 12:44:31;;;;;;;;;;;10.50;72.10;;;;;;5089675;28;20019;-60
2024/03/23 12:47:04;;;;;;;;;;;10.60;72.10;;;;;;5091625;28;19924;-60
2024/03/23 12:52:56;;;;;;;;;;;10.50;71.80;;;;;;5030462;28;22994;-62
2024/03/23 12:55:28;;;;;;;;;;;10.50;71.90;;;;;;5090351;28;20366;-62
2024/03/23 12:58:02;;;;;;;;;;;10.60;71.90;;;;;;5089546;28;19973;-60
2024/03/23 13:00:33;;;;;;;;;;;10.60;72.30;;;;;;5092629;28;20114;-60
2024/03/23 13:03:07;;;;;;;;;;;10.60;72.00;;;;;;5089996;28;20495;-60
2024/03/23 13:06:09;;;;;;;;;;;10.60;71.80;;;;;;5088010;28;19924;-62
2024/03/23 13:08:44;;;;;;;;;;;10.60;71.60;;;;;;5077105;28;19932;-62
2024/03/23 13:11:18;;;;;;;;;;;10.70;71.70;;;;;;5092918;28;19974;-61
2024/03/23 13:13:51;;;;;;;;;;;10.80;71.60;;;;;;5089666;28;19946;-60
2024/03/23 13:16:24;;;;;;;;;;;10.80;71.10;;;;;;5090808;28;19924;-61
2024/03/23 13:18:51;;;;;;;;;;;10.80;71.10;;;;;;5089427;28;19928;-61
2024/03/23 13:21:23;;;;;;;;;;;10.90;70.30;;;;;;5081784;28;19924;-61
2024/03/23 13:23:58;;;;;;;;;;;11.00;70.10;;;;;;5095614;28;19960;-61
2024/03/23 13:26:31;;;;;;;;;;;11.10;69.60;;;;;;5090557;28;20816;-60
2024/03/23 13:29:04;;;;;;;;;;;11.10;69.40;;;;;;5077821;28;19938;-62
2024/03/23 13:31:35;;;;;;;;;;;11.20;69.30;;;;;;5092138;28;20005;-60
2024/03/23 13:34:09;;;;;;;;;;;11.30;68.30;;;;;;5091112;28;19928;-60
2024/03/23 13:36:35;;;;;;;;;;;11.40;68.20;;;;;;5092403;28;19979;-61
2024/03/23 13:39:11;;;;;;;;;;;11.30;67.80;;;;;;5088930;28;19932;-60
2024/03/23 13:41:44;;;;;;;;;;;11.20;68.20;;;;;;5092963;28;20021;-60
2024/03/23 13:44:17;;;;;;;;;;;11.10;67.90;;;;;;5093725;28;19927;-62
2024/03/23 13:46:49;;;;;;;;;;;11.00;67.10;;;;;;5090605;28;20009;-62
2024/03/23 13:49:27;;;;;;;;;;;10.60;68.10;;;;;;5091417;28;19923;-61
2024/03/23 13:52:00;;;;;;;;;;;10.10;69.00;;;;;;5092682;28;19928;-61
2024/03/23 13:54:35;;;;;;;;;;;9.70;70.20;;;;;;5094289;28;20375;-61
2024/03/23 13:57:07;;;;;;;;;;;9.50;71.40;;;;;;5089958;28;19967;-61
2024/03/23 13:59:40;;;;;;;;;;;9.20;72.10;;;;;;5096067;28;19924;-61
2024/03/23 14:02:14;;;;;;;;;;;9.00;73.00;;;;;;5083445;28;19935;-61
2024/03/23 14:04:48;;;;;;;;;;;8.90;73.00;;;;;;5092993;28;20022;-60
2024/03/23 14:07:20;;;;;;;;;;;8.70;73.10;;;;;;5094218;28;19934;-59
2024/03/23 14:09:49;;;;;;;;;;;8.70;73.70;;;;;;5093388;28;19932;-60
2024/03/23 14:12:20;;;;;;;;;;;8.60;74.00;;;;;;5099572;28;19924;-59
2024/03/23 14:14:53;;;;;;;;;;;8.70;73.50;;;;;;5098151;28;20001;-59
2024/03/23 14:17:26;;;;;;;;;;;8.60;73.80;;;;;;5094082;28;19935;-59
2024/03/23 14:20:00;;;;;;;;;;;8.50;73.90;;;;;;5090919;28;20062;-59
2024/03/23 14:22:34;;;;;;;;;;;8.40;74.30;;;;;;5099696;28;19948;-58
2024/03/23 14:25:07;;;;;;;;;;;8.40;74.60;;;;;;5097913;28;19977;-58
2024/03/23 14:27:41;;;;;;;;;;;8.30;74.50;;;;;;5096557;28;19928;-59
2024/03/23 14:30:13;;;;;;;;;;;8.20;75.30;;;;;;5098583;28;19924;-60
2024/03/23 14:32:46;;;;;;;;;;;8.20;75.70;;;;;;5095357;28;19924;-60
2024/03/23 14:35:18;;;;;;;;;;;8.10;75.80;;;;;;5093310;28;19924;-59
2024/03/23 14:37:52;;;;;;;;;;;8.10;76.70;;;;;;5095582;28;20009;-59
2024/03/23 14:40:27;;;;;;;;;;;8.30;76.70;;;;;;5098085;28;19924;-59
2024/03/23 14:43:00;;;;;;;;;;;8.40;77.00;;;;;;5095653;28;19924;-57
2024/03/23 14:45:33;;;;;;;;;;;8.60;76.80;;;;;;5096239;28;19928;-58
2024/03/23 14:48:06;;;;;;;;;;;8.80;76.70;;;;;;5095597;28;19928;-58
2024/03/23 14:50:38;;;;;;;;;;;8.90;76.50;;;;;;5098160;28;20302;-59
2024/03/23 14:53:14;;;;;;;;;;;9.00;76.40;;;;;;5097006;28;19931;-58
2024/03/23 14:55:49;;;;;;;;;;;9.10;77.10;;;;;;5092669;28;19934;-59
2024/03/23 14:58:24;;;;;;;;;;;9.10;76.40;;;;;;5095449;28;19972;-59
2024/03/23 15:01:00;;;;;;;;;;;9.10;75.70;;;;;;5097961;28;19928;-58
2024/03/23 15:03:33;;;;;;;;;;;8.90;76.30;;;;;;5098507;28;19928;-59
2024/03/23 15:06:06;;;;;;;;;;;8.90;76.60;;;;;;5096243;28;20421;-59
2024/03/23 15:08:33;;;;;;;;;;;8.90;76.90;;;;;;5071367;28;20302;-59
2024/03/23 15:11:32;;;;;;;;;;;8.80;77.20;;;;;;5097327;28;20062;-59
2024/03/23 15:14:12;;;;;;;;;;;8.70;76.90;;;;;;5094247;28;19924;-61
2024/03/23 15:16:44;;;;;;;;;;;8.70;77.60;;;;;;5098337;28;20428;-64
2024/03/23 15:19:11;;;;;;;;;;;8.70;77.90;;;;;;5092616;28;19928;-62